Time;durP1;ratioP1;P1;durP2;ratioP2;P2;SDS_P1;SDS_P2;PMS_P1;PMS_P2;Temp;Humidity;BMP_temperature;BMP_pressure;BME280_temperature;BME280_humidity;BME280_pressure;Samples;Min_cycle;Max_cycle;Signal;HPM_P1;HPM_P2
2021/12/11 00:02:12;;;;;;;17.30;9.20;;;1.90;99.90;;;;;;5063239;28;20435;-83
2021/12/11 00:04:41;;;;;;;15.80;10.47;;;1.80;99.90;;;;;;5063899;28;20435;-83
2021/12/11 00:07:11;;;;;;;13.83;10.17;;;2.10;99.90;;;;;;5061947;28;20499;-83
2021/12/11 00:10:12;;;;;;;14.07;9.50;;;1.90;99.90;;;;;;5088919;28;20989;-82
2021/12/11 00:12:46;;;;;;;14.03;9.33;;;2.10;99.90;;;;;;5078406;28;20486;-80
2021/12/11 00:15:17;;;;;;;12.50;9.43;;;2.00;99.90;;;;;;5074214;28;20415;-81
2021/12/11 00:17:43;;;;;;;12.00;9.47;;;2.10;99.90;;;;;;5060454;28;20447;-81
2021/12/11 00:20:18;;;;;;;10.77;9.20;;;2.20;99.90;;;;;;5062884;28;20788;-83
2021/12/11 00:22:45;;;;;;;12.00;9.33;;;2.00;99.90;;;;;;5078892;28;21002;-80
2021/12/11 00:25:14;;;;;;;12.13;9.20;;;2.10;99.90;;;;;;5073936;28;20937;-83
2021/12/11 00:27:45;;;;;;;14.10;10.07;;;2.10;99.90;;;;;;5080289;28;20677;-83
2021/12/11 00:30:28;;;;;;;10.10;9.00;;;2.10;99.90;;;;;;5080260;28;20451;-84
2021/12/11 00:33:06;;;;;;;13.27;9.87;;;1.90;99.90;;;;;;5066597;28;20813;-84
2021/12/11 00:35:34;;;;;;;12.23;9.43;;;1.70;99.90;;;;;;5060857;28;20782;-83
2021/12/11 00:38:07;;;;;;;13.37;10.00;;;1.80;99.90;;;;;;5078429;28;20443;-83
2021/12/11 00:40:34;;;;;;;13.50;9.53;;;1.80;99.90;;;;;;5072940;28;20440;-83
2021/12/11 00:43:03;;;;;;;13.17;9.77;;;1.80;99.90;;;;;;5079966;28;20433;-81
2021/12/11 00:45:33;;;;;;;14.23;10.60;;;1.80;99.90;;;;;;5029927;28;21086;-82
2021/12/11 00:48:07;;;;;;;12.20;9.60;;;2.00;99.90;;;;;;5045692;28;20451;-82
2021/12/11 00:50:38;;;;;;;13.37;9.80;;;1.70;99.90;;;;;;5058273;28;20475;-83
2021/12/11 00:53:16;;;;;;;12.77;9.97;;;1.70;99.90;;;;;;5026213;28;20416;-81
2021/12/11 00:55:51;;;;;;;14.00;9.83;;;1.90;99.90;;;;;;5066253;28;20951;-80
2021/12/11 00:58:30;;;;;;;12.80;9.97;;;1.60;99.90;;;;;;5075023;28;20488;-80
2021/12/11 01:01:00;;;;;;;14.60;10.30;;;1.70;99.90;;;;;;5059721;28;20494;-82
2021/12/11 01:03:48;;;;;;;12.93;10.33;;;1.90;99.90;;;;;;5042113;28;20416;-81
2021/12/11 01:06:33;;;;;;;11.77;9.67;;;1.90;99.90;;;;;;5059090;28;20421;-81
2021/12/11 01:09:05;;;;;;;14.13;10.73;;;1.80;99.90;;;;;;5065932;28;20462;-83
2021/12/11 01:11:56;;;;;;;12.33;9.70;;;1.60;99.90;;;;;;5074182;28;20435;-83
2021/12/11 01:14:37;;;;;;;12.57;10.30;;;1.70;99.90;;;;;;5068624;28;20411;-82
2021/12/11 01:17:20;;;;;;;14.33;10.60;;;1.70;99.90;;;;;;5049758;28;20493;-81
2021/12/11 01:19:54;;;;;;;14.33;10.50;;;1.70;99.90;;;;;;5049542;28;20427;-83
2021/12/11 01:22:35;;;;;;;14.87;10.00;;;1.60;99.90;;;;;;5042714;28;20435;-82
2021/12/11 01:25:14;;;;;;;11.27;10.07;;;1.70;99.90;;;;;;5077996;28;20423;-82
2021/12/11 01:27:44;;;;;;;12.80;10.00;;;1.80;99.90;;;;;;5057588;28;20518;-83
2021/12/11 01:30:14;;;;;;;14.43;10.20;;;1.80;99.90;;;;;;5059719;28;20533;-81
2021/12/11 01:32:40;;;;;;;12.30;10.20;;;1.60;99.90;;;;;;5060518;28;20477;-82
2021/12/11 01:35:10;;;;;;;10.77;9.50;;;1.70;99.90;;;;;;5077690;28;20480;-83
2021/12/11 01:37:37;;;;;;;14.63;10.80;;;1.70;99.90;;;;;;5032063;28;20431;-84
2021/12/11 01:40:08;;;;;;;14.37;10.40;;;1.70;99.90;;;;;;5060619;28;20449;-81
2021/12/11 01:42:35;;;;;;;11.70;10.53;;;1.90;99.90;;;;;;5054826;28;20415;-82
2021/12/11 01:45:06;;;;;;;13.00;11.60;;;1.70;99.90;;;;;;5078470;28;20458;-83
2021/12/11 01:47:36;;;;;;;15.70;10.07;;;1.90;99.90;;;;;;5037792;28;21137;-83
2021/12/11 01:50:09;;;;;;;15.73;10.27;;;2.00;99.90;;;;;;5042003;28;20480;-82
2021/12/11 01:53:00;;;;;;;12.70;10.73;;;2.00;99.90;;;;;;5067929;28;20420;-83
2021/12/11 01:56:12;;;;;;;14.17;10.80;;;1.90;99.90;;;;;;5065159;28;20436;-81
2021/12/11 01:58:42;;;;;;;18.83;11.77;;;1.70;99.90;;;;;;5067095;28;20503;-84
2021/12/11 02:01:19;;;;;;;15.90;11.97;;;2.00;99.90;;;;;;5037759;28;21047;-81
2021/12/11 02:03:48;;;;;;;14.33;11.77;;;1.90;99.90;;;;;;5040534;28;20420;-84
2021/12/11 02:06:13;;;;;;;15.10;12.80;;;2.10;99.90;;;;;;5072863;28;20868;-83
2021/12/11 02:08:41;;;;;;;14.77;12.40;;;2.00;99.90;;;;;;5057798;28;20531;-84
2021/12/11 02:11:11;;;;;;;24.13;13.57;;;2.10;99.90;;;;;;5060158;28;20185;-81
2021/12/11 02:13:49;;;;;;;15.27;12.07;;;2.10;99.90;;;;;;5057309;28;20424;-84
2021/12/11 02:16:32;;;;;;;16.70;13.67;;;2.30;99.90;;;;;;5045073;28;20469;-81
2021/12/11 02:19:04;;;;;;;14.20;12.50;;;2.30;99.90;;;;;;5076700;28;20419;-84
2021/12/11 02:21:33;;;;;;;19.10;12.70;;;2.30;99.90;;;;;;5069684;28;20425;-81
2021/12/11 02:24:07;;;;;;;14.90;11.93;;;2.20;99.90;;;;;;5055294;28;20459;-82
2021/12/11 02:26:35;;;;;;;16.80;12.47;;;2.30;99.90;;;;;;5077500;28;20450;-83
2021/12/11 02:29:10;;;;;;;18.67;13.10;;;2.20;99.90;;;;;;5077931;28;20451;-82
2021/12/11 02:31:50;;;;;;;20.60;14.20;;;2.20;99.90;;;;;;5078982;28;20438;-81
2021/12/11 02:34:55;;;;;;;19.00;12.80;;;2.20;99.90;;;;;;5060329;28;20419;-81
2021/12/11 02:37:35;;;;;;;15.97;12.70;;;2.20;99.90;;;;;;5080934;28;20427;-85
2021/12/11 02:40:36;;;;;;;17.10;12.73;;;2.30;99.90;;;;;;5078080;28;20502;-80
2021/12/11 02:43:10;;;;;;;16.47;13.23;;;2.00;99.90;;;;;;5073253;28;20418;-83
2021/12/11 02:46:16;;;;;;;18.23;12.70;;;2.10;99.90;;;;;;5036133;28;20423;-84
2021/12/11 02:48:52;;;;;;;16.93;13.43;;;1.80;99.90;;;;;;5078341;28;20427;-84
2021/12/11 02:51:27;;;;;;;14.20;11.70;;;2.00;99.90;;;;;;5076762;28;20446;-83
2021/12/11 02:54:13;;;;;;;17.43;12.90;;;2.00;99.90;;;;;;5078485;28;20445;-79
2021/12/11 02:56:43;;;;;;;15.23;12.07;;;1.90;99.90;;;;;;5064516;28;20456;-84
2021/12/11 02:59:14;;;;;;;16.60;13.03;;;1.90;99.90;;;;;;5043666;28;20917;-84
2021/12/11 03:01:51;;;;;;;20.60;14.00;;;1.90;99.90;;;;;;5075586;28;20524;-83
2021/12/11 03:04:30;;;;;;;16.43;11.83;;;2.10;99.90;;;;;;5042416;28;20438;-81
2021/12/11 03:07:00;;;;;;;15.20;13.43;;;2.10;99.90;;;;;;5040186;28;20440;-82
2021/12/11 03:09:30;;;;;;;17.00;12.57;;;2.20;99.90;;;;;;5070200;28;20451;-82
2021/12/11 03:12:00;;;;;;;19.00;13.27;;;2.10;99.90;;;;;;5074963;28;20427;-83
2021/12/11 03:14:28;;;;;;;19.00;13.50;;;1.90;99.90;;;;;;5074942;28;20496;-82
2021/12/11 03:16:55;;;;;;;19.13;14.67;;;2.00;99.90;;;;;;5058876;28;20447;-82
2021/12/11 03:19:24;;;;;;;19.10;13.37;;;2.10;99.90;;;;;;5064224;28;20431;-82
2021/12/11 03:21:53;;;;;;;19.93;13.43;;;2.10;99.90;;;;;;5075306;28;20453;-82
2021/12/11 03:24:19;;;;;;;19.20;13.00;;;1.90;99.90;;;;;;5078703;28;21002;-80
2021/12/11 03:26:48;;;;;;;20.10;13.90;;;1.90;99.90;;;;;;5083216;28;20459;-80
2021/12/11 03:29:14;;;;;;;18.53;13.00;;;2.00;99.90;;;;;;5074466;28;20462;-81
2021/12/11 03:31:41;;;;;;;20.70;14.30;;;2.10;99.90;;;;;;5058559;28;20454;-81
2021/12/11 03:34:12;;;;;;;23.03;13.70;;;1.90;99.90;;;;;;5057857;28;20430;-83
2021/12/11 03:36:39;;;;;;;20.57;13.63;;;2.00;99.90;;;;;;5074464;28;20442;-82
2021/12/11 03:39:18;;;;;;;20.87;13.50;;;2.00;99.90;;;;;;5041349;28;20762;-80
2021/12/11 03:41:47;;;;;;;20.30;14.40;;;1.90;99.90;;;;;;5055965;28;20442;-79
2021/12/11 03:44:15;;;;;;;25.10;14.90;;;1.80;99.90;;;;;;5077221;28;20519;-80
2021/12/11 03:46:42;;;;;;;20.83;14.40;;;1.70;99.90;;;;;;5055806;28;20455;-83
2021/12/11 03:49:14;;;;;;;18.40;13.60;;;1.60;99.90;;;;;;5076024;28;20451;-80
2021/12/11 03:51:43;;;;;;;22.97;14.57;;;1.60;99.90;;;;;;5040731;28;20434;-82
2021/12/11 03:54:15;;;;;;;23.30;14.43;;;1.80;99.90;;;;;;5021229;28;20428;-80
2021/12/11 03:56:41;;;;;;;22.20;14.27;;;1.50;99.90;;;;;;5057229;28;20565;-80
2021/12/11 03:59:10;;;;;;;23.17;14.97;;;1.70;99.90;;;;;;5057941;28;20423;-82
2021/12/11 04:01:45;;;;;;;23.70;15.07;;;1.70;99.90;;;;;;5058338;28;20431;-83
2021/12/11 04:04:47;;;;;;;26.30;16.70;;;1.80;99.90;;;;;;5064658;28;20427;-82
2021/12/11 04:07:16;;;;;;;25.63;15.27;;;1.60;99.90;;;;;;5021779;28;20455;-80
2021/12/11 04:09:44;;;;;;;25.53;15.53;;;1.80;99.90;;;;;;5041352;28;20858;-82
2021/12/11 04:12:09;;;;;;;25.50;17.27;;;2.00;99.90;;;;;;5041709;28;20443;-81
2021/12/11 04:14:41;;;;;;;23.73;16.20;;;1.80;99.90;;;;;;5074798;28;20420;-82
2021/12/11 04:17:08;;;;;;;29.63;16.40;;;1.90;99.90;;;;;;5047974;28;20439;-82
2021/12/11 04:19:34;;;;;;;25.47;16.50;;;2.00;99.90;;;;;;5026018;28;20511;-83
2021/12/11 04:22:01;;;;;;;25.10;16.57;;;1.90;99.90;;;;;;5047188;28;20957;-83
2021/12/11 04:24:29;;;;;;;31.10;15.63;;;1.90;99.90;;;;;;5070147;28;20789;-81
2021/12/11 04:26:56;;;;;;;26.20;16.50;;;1.90;99.90;;;;;;5073577;28;20460;-82
2021/12/11 04:29:23;;;;;;;26.17;17.20;;;2.00;99.90;;;;;;5039061;28;20460;-82
2021/12/11 04:31:49;;;;;;;27.30;16.87;;;1.80;99.90;;;;;;5056969;28;20516;-83
2021/12/11 04:34:18;;;;;;;30.43;16.63;;;1.80;99.90;;;;;;5025184;28;20428;-80
2021/12/11 04:37:11;;;;;;;24.87;16.20;;;1.70;99.90;;;;;;5062123;28;20436;-81
2021/12/11 04:39:39;;;;;;;28.20;15.83;;;1.70;99.90;;;;;;5051115;28;20428;-82
2021/12/11 04:42:19;;;;;;;26.90;16.30;;;1.70;99.90;;;;;;5081601;28;20428;-82
2021/12/11 04:44:47;;;;;;;30.10;15.67;;;1.50;99.90;;;;;;5043834;28;20424;-81
2021/12/11 04:47:31;;;;;;;30.80;17.10;;;1.60;99.90;;;;;;5079045;28;20492;-81
2021/12/11 04:50:03;;;;;;;26.90;16.60;;;1.60;99.90;;;;;;5054915;28;20549;-82
2021/12/11 04:52:34;;;;;;;31.57;15.90;;;1.60;99.90;;;;;;5077975;28;20495;-82
2021/12/11 04:55:26;;;;;;;28.30;18.07;;;1.80;99.90;;;;;;5079296;28;20415;-82
2021/12/11 05:04:05;;;;;;;26.70;17.67;;;1.70;99.90;;;;;;5069934;28;20473;-81
2021/12/11 05:06:48;;;;;;;24.00;17.07;;;1.40;99.90;;;;;;5078465;28;20431;-82
2021/12/11 05:09:26;;;;;;;28.20;17.00;;;1.30;99.90;;;;;;5061412;28;20541;-81
2021/12/11 05:12:11;;;;;;;36.30;18.40;;;1.40;99.90;;;;;;5066781;28;21490;-80
2021/12/11 05:14:37;;;;;;;31.70;18.30;;;1.50;99.90;;;;;;5084167;28;20447;-82
2021/12/11 05:17:05;;;;;;;24.40;17.60;;;1.50;99.90;;;;;;5074648;28;20522;-81
2021/12/11 05:19:32;;;;;;;31.17;18.83;;;1.40;99.90;;;;;;5047941;28;20473;-82
2021/12/11 05:21:58;;;;;;;29.93;19.43;;;1.60;99.90;;;;;;5084024;28;20578;-81
2021/12/11 05:24:23;;;;;;;38.53;20.10;;;1.50;99.90;;;;;;5043033;28;20484;-82
2021/12/11 05:26:49;;;;;;;27.87;17.10;;;1.40;99.90;;;;;;5096841;28;20530;-82
2021/12/11 05:29:15;;;;;;;29.00;18.67;;;1.50;99.90;;;;;;5072569;28;20685;-81
2021/12/11 05:31:41;;;;;;;31.23;18.67;;;1.60;99.90;;;;;;5094453;28;20447;-81
2021/12/11 05:34:07;;;;;;;29.20;17.67;;;1.40;99.90;;;;;;5041748;28;20806;-82
2021/12/11 05:36:36;;;;;;;28.70;18.63;;;1.50;99.90;;;;;;5057925;28;20477;-82
2021/12/11 05:39:10;;;;;;;32.43;19.17;;;1.60;99.90;;;;;;5078974;28;20423;-82
2021/12/11 05:41:36;;;;;;;36.83;17.87;;;1.50;99.90;;;;;;5067789;28;20438;-81
2021/12/11 05:44:04;;;;;;;40.17;20.10;;;1.30;99.90;;;;;;5075758;28;20490;-80
2021/12/11 05:46:30;;;;;;;30.20;20.60;;;1.40;99.90;;;;;;5080801;28;20426;-82
2021/12/11 05:48:55;;;;;;;41.33;19.97;;;1.40;99.90;;;;;;5076361;28;20453;-82
2021/12/11 05:51:23;;;;;;;35.87;20.17;;;1.30;99.90;;;;;;5076425;28;20188;-81
2021/12/11 05:53:53;;;;;;;36.97;20.87;;;1.50;99.90;;;;;;5063359;28;20330;-81
2021/12/11 05:56:21;;;;;;;35.90;20.67;;;1.40;99.90;;;;;;5046800;28;20448;-80
2021/12/11 05:58:56;;;;;;;38.40;20.43;;;1.40;99.90;;;;;;5051362;28;20416;-83
2021/12/11 06:01:36;;;;;;;45.73;21.63;;;1.40;99.90;;;;;;5072177;28;20477;-79
2021/12/11 06:04:07;;;;;;;32.97;20.37;;;1.60;99.90;;;;;;5041248;28;20454;-81
2021/12/11 06:06:34;;;;;;;36.80;20.83;;;1.60;99.90;;;;;;5076486;28;20427;-80
2021/12/11 06:08:59;;;;;;;39.23;21.77;;;1.40;99.90;;;;;;5049081;28;20452;-80
2021/12/11 06:11:25;;;;;;;36.50;21.53;;;1.70;99.90;;;;;;5024751;28;20430;-80
2021/12/11 06:13:51;;;;;;;44.47;23.00;;;1.80;99.90;;;;;;5059895;28;20181;-80
2021/12/11 06:16:17;;;;;;;39.40;21.70;;;1.90;99.90;;;;;;5042572;28;20187;-82
2021/12/11 06:18:45;;;;;;;46.07;22.80;;;2.00;99.90;;;;;;5059643;28;20912;-82
2021/12/11 06:21:12;;;;;;;41.13;22.17;;;2.00;99.90;;;;;;5076372;28;20415;-82
2021/12/11 06:23:37;;;;;;;45.80;22.53;;;1.90;99.90;;;;;;5063960;28;20474;-82
2021/12/11 06:26:04;;;;;;;44.63;22.20;;;1.90;99.90;;;;;;5074627;28;20858;-82
2021/12/11 06:28:29;;;;;;;39.10;21.60;;;2.10;99.90;;;;;;5057291;28;20617;-82
2021/12/11 06:30:58;;;;;;;46.63;22.70;;;2.00;99.90;;;;;;5075482;28;20466;-81
2021/12/11 06:33:28;;;;;;;43.03;21.60;;;2.00;99.90;;;;;;5059118;28;20508;-80
2021/12/11 06:36:01;;;;;;;41.00;22.77;;;2.10;99.90;;;;;;5032499;28;20415;-79
2021/12/11 06:38:29;;;;;;;44.97;23.83;;;2.00;99.90;;;;;;5045573;28;21024;-83
2021/12/11 06:40:56;;;;;;;39.87;21.43;;;2.10;99.90;;;;;;5059763;28;20443;-81
2021/12/11 06:43:23;;;;;;;44.70;22.80;;;1.80;99.90;;;;;;5072679;28;20805;-80
2021/12/11 06:45:49;;;;;;;47.40;24.73;;;2.00;99.90;;;;;;5076928;28;20424;-82
2021/12/11 06:48:16;;;;;;;45.43;25.20;;;1.90;99.90;;;;;;5073850;28;20824;-82
2021/12/11 06:50:42;;;;;;;52.63;25.80;;;2.00;99.90;;;;;;5048046;28;20466;-82
2021/12/11 06:53:20;;;;;;;53.80;25.13;;;2.10;99.90;;;;;;5053853;28;20951;-80
2021/12/11 06:55:45;;;;;;;51.13;26.70;;;1.80;99.90;;;;;;5075471;28;20495;-82
2021/12/11 06:58:11;;;;;;;50.40;24.57;;;2.00;99.90;;;;;;5058402;28;20491;-80
2021/12/11 07:00:37;;;;;;;52.63;24.90;;;2.20;99.90;;;;;;5052310;28;20182;-81
2021/12/11 07:03:03;;;;;;;49.07;24.43;;;2.30;99.90;;;;;;5075248;28;20200;-80
2021/12/11 07:05:29;;;;;;;51.77;25.27;;;2.20;99.90;;;;;;5058259;28;20498;-80
2021/12/11 07:07:55;;;;;;;61.10;26.90;;;2.20;99.90;;;;;;5058147;28;20462;-82
2021/12/11 07:10:23;;;;;;;49.90;25.37;;;2.30;99.90;;;;;;5076754;28;20212;-81
2021/12/11 07:12:50;;;;;;;46.10;25.23;;;2.50;99.90;;;;;;5056938;28;20462;-80
2021/12/11 07:15:16;;;;;;;59.33;26.30;;;2.30;99.90;;;;;;5065260;28;20424;-81
2021/12/11 07:17:42;;;;;;;46.00;23.90;;;2.20;99.90;;;;;;5074705;28;20443;-81
2021/12/11 07:20:11;;;;;;;59.83;26.37;;;2.40;99.90;;;;;;5072339;28;20427;-81
2021/12/11 07:22:40;;;;;;;56.30;27.07;;;2.30;99.90;;;;;;5055797;28;20192;-79
2021/12/11 07:25:10;;;;;;;51.43;25.23;;;2.50;99.90;;;;;;5075329;28;20427;-81
2021/12/11 07:27:36;;;;;;;47.07;24.27;;;2.50;99.90;;;;;;5055691;28;20455;-80
2021/12/11 07:30:02;;;;;;;51.23;24.30;;;2.60;99.90;;;;;;5045886;28;20493;-80
2021/12/11 07:32:28;;;;;;;53.60;23.33;;;2.50;99.90;;;;;;5041500;28;20412;-82
2021/12/11 07:34:54;;;;;;;53.00;25.87;;;2.50;99.90;;;;;;5022604;28;20483;-79
2021/12/11 07:37:19;;;;;;;50.23;26.23;;;2.60;99.90;;;;;;5057373;28;20205;-82
2021/12/11 07:39:45;;;;;;;49.27;23.80;;;2.50;99.90;;;;;;5056970;28;20194;-82
2021/12/11 07:42:11;;;;;;;49.50;23.67;;;2.40;99.90;;;;;;5023287;28;20464;-82
2021/12/11 07:44:37;;;;;;;51.07;25.30;;;2.60;99.90;;;;;;5075451;28;20181;-84
2021/12/11 07:47:05;;;;;;;51.87;25.53;;;2.60;99.90;;;;;;5043511;28;20239;-84
2021/12/11 07:49:31;;;;;;;53.70;24.60;;;2.50;99.90;;;;;;5056641;28;21037;-84
2021/12/11 07:51:56;;;;;;;51.80;24.80;;;2.40;99.90;;;;;;5059480;28;20423;-82
2021/12/11 07:54:22;;;;;;;57.73;26.30;;;2.50;99.90;;;;;;5072506;28;20173;-84
2021/12/11 07:56:48;;;;;;;55.83;26.20;;;2.60;99.90;;;;;;5031983;28;20210;-84
2021/12/11 07:59:15;;;;;;;49.53;25.37;;;2.80;99.90;;;;;;5037305;28;20434;-83
2021/12/11 08:01:43;;;;;;;50.00;25.70;;;2.80;99.90;;;;;;5058714;28;20908;-81
2021/12/11 08:04:11;;;;;;;53.83;25.80;;;2.90;99.90;;;;;;5057972;28;20791;-83
2021/12/11 08:06:37;;;;;;;50.67;26.77;;;3.10;99.90;;;;;;5074875;28;20507;-82
2021/12/11 08:09:09;;;;;;;49.93;25.40;;;2.90;99.90;;;;;;5076809;28;20458;-82
2021/12/11 08:11:35;;;;;;;49.17;24.60;;;2.80;99.90;;;;;;5021849;28;20453;-81
2021/12/11 08:14:02;;;;;;;51.67;26.97;;;2.90;99.90;;;;;;5068505;28;20465;-82
2021/12/11 08:16:34;;;;;;;52.73;27.33;;;3.00;99.90;;;;;;5074062;28;20424;-83
2021/12/11 08:19:02;;;;;;;47.30;27.63;;;3.00;99.90;;;;;;5050196;28;20440;-84
2021/12/11 08:21:28;;;;;;;50.93;26.63;;;3.10;99.90;;;;;;5024844;28;20418;-81
2021/12/11 08:23:56;;;;;;;49.77;26.03;;;3.00;99.90;;;;;;5075202;28;20477;-81
2021/12/11 08:26:24;;;;;;;51.33;25.97;;;3.40;99.90;;;;;;5075150;28;20506;-79
2021/12/11 08:28:51;;;;;;;51.40;25.90;;;3.30;99.90;;;;;;5082173;28;20432;-82
2021/12/11 08:31:19;;;;;;;56.13;26.97;;;3.40;99.90;;;;;;5040967;28;20450;-82
2021/12/11 08:33:45;;;;;;;49.00;24.70;;;3.20;99.90;;;;;;5041852;28;20423;-84
2021/12/11 08:36:11;;;;;;;53.20;28.70;;;3.10;99.90;;;;;;5050543;28;20416;-83
2021/12/11 08:38:37;;;;;;;55.43;25.73;;;3.10;99.90;;;;;;5049956;28;21022;-82
2021/12/11 08:41:06;;;;;;;56.00;25.80;;;3.20;99.90;;;;;;5065666;28;20428;-83
2021/12/11 08:43:32;;;;;;;50.60;26.30;;;3.30;99.90;;;;;;5069026;28;20474;-81
2021/12/11 08:46:13;;;;;;;51.10;26.53;;;3.10;99.90;;;;;;5057727;28;20872;-83
2021/12/11 08:48:44;;;;;;;56.57;26.93;;;3.20;99.90;;;;;;5057515;28;20465;-82
2021/12/11 08:51:23;;;;;;;52.17;26.37;;;3.00;99.90;;;;;;5076300;28;20495;-81
2021/12/11 08:53:50;;;;;;;50.37;27.27;;;3.30;99.90;;;;;;5041688;28;20422;-82
2021/12/11 08:56:17;;;;;;;48.70;26.13;;;3.10;99.90;;;;;;5057888;28;20439;-83
2021/12/11 08:58:47;;;;;;;54.30;26.10;;;3.10;99.90;;;;;;5046514;28;20466;-83
2021/12/11 09:01:24;;;;;;;50.97;24.70;;;3.30;99.90;;;;;;5074384;28;20419;-82
2021/12/11 09:04:17;;;;;;;54.30;26.50;;;3.30;99.90;;;;;;5057845;28;20459;-83
2021/12/11 09:07:01;;;;;;;48.00;26.00;;;3.40;99.90;;;;;;5057349;28;20431;-83
2021/12/11 09:09:38;;;;;;;48.80;24.60;;;3.30;99.90;;;;;;5058535;28;20459;-81
2021/12/11 09:12:07;;;;;;;48.57;24.67;;;3.30;99.90;;;;;;5074622;28;20506;-81
2021/12/11 09:14:51;;;;;;;52.13;24.70;;;3.50;99.90;;;;;;5074593;28;20502;-81
2021/12/11 09:17:31;;;;;;;43.80;23.93;;;3.60;99.90;;;;;;5083428;28;20545;-81
2021/12/11 09:20:04;;;;;;;46.80;25.47;;;3.60;99.90;;;;;;5051205;28;20427;-82
2021/12/11 09:22:34;;;;;;;46.70;26.27;;;3.50;99.90;;;;;;5085247;28;20515;-82
2021/12/11 09:25:08;;;;;;;45.80;23.63;;;3.60;99.90;;;;;;5023871;28;20518;-80
2021/12/11 09:27:48;;;;;;;53.10;25.70;;;3.50;99.90;;;;;;5087134;28;20435;-82
2021/12/11 09:30:23;;;;;;;47.47;25.00;;;3.50;99.90;;;;;;5065118;28;20541;-82
2021/12/11 09:32:54;;;;;;;49.60;24.63;;;3.60;99.90;;;;;;5064429;28;20986;-81
2021/12/11 09:35:31;;;;;;;42.50;23.03;;;3.60;99.90;;;;;;5077454;28;20422;-82
2021/12/11 09:38:07;;;;;;;50.97;25.50;;;3.60;99.90;;;;;;5076874;28;20494;-80
2021/12/11 09:40:38;;;;;;;49.93;25.50;;;3.70;99.90;;;;;;5064129;28;20434;-80
2021/12/11 09:43:04;;;;;;;47.63;25.23;;;3.90;99.90;;;;;;5082794;28;20503;-81
2021/12/11 09:45:42;;;;;;;50.13;25.90;;;3.80;99.90;;;;;;5078881;28;20839;-82
2021/12/11 09:48:17;;;;;;;47.77;24.97;;;3.60;99.90;;;;;;5036839;28;20214;-82
2021/12/11 09:50:56;;;;;;;57.60;26.30;;;3.70;99.90;;;;;;5042442;28;20498;-80
2021/12/11 09:53:27;;;;;;;46.57;24.17;;;3.90;99.90;;;;;;5050736;28;20427;-80
2021/12/11 09:55:55;;;;;;;47.70;25.83;;;3.70;99.90;;;;;;5054046;28;20846;-80
2021/12/11 09:58:27;;;;;;;51.00;26.10;;;3.80;99.90;;;;;;5075826;28;20470;-82
2021/12/11 10:01:04;;;;;;;53.90;28.53;;;3.70;99.90;;;;;;5078636;28;20468;-82
2021/12/11 10:03:33;;;;;;;44.27;24.60;;;3.70;99.90;;;;;;5077310;28;20449;-81
2021/12/11 10:06:12;;;;;;;49.27;25.50;;;4.00;99.90;;;;;;5077711;28;20904;-81
2021/12/11 10:08:41;;;;;;;48.60;25.07;;;3.70;99.90;;;;;;5069747;28;20858;-81
2021/12/11 10:11:30;;;;;;;45.57;26.23;;;4.00;99.90;;;;;;5070730;28;20537;-83
2021/12/11 10:13:59;;;;;;;45.83;25.30;;;4.00;99.90;;;;;;5073055;28;21131;-81
2021/12/11 10:16:34;;;;;;;55.60;27.37;;;4.00;99.90;;;;;;5057432;28;20426;-80
2021/12/11 10:19:00;;;;;;;48.30;24.70;;;4.00;99.90;;;;;;5074155;28;20418;-83
2021/12/11 10:21:30;;;;;;;54.33;25.40;;;4.00;99.90;;;;;;5048004;28;20427;-84
2021/12/11 10:23:59;;;;;;;51.17;25.53;;;3.90;99.90;;;;;;5055764;28;20478;-81
2021/12/11 10:26:27;;;;;;;52.30;25.60;;;4.10;99.90;;;;;;5070809;28;20795;-81
2021/12/11 10:28:58;;;;;;;52.90;26.23;;;4.10;99.90;;;;;;5066683;28;20419;-83
2021/12/11 10:31:36;;;;;;;50.03;25.43;;;4.00;99.90;;;;;;5064254;28;20429;-83
2021/12/11 10:34:06;;;;;;;50.00;26.27;;;4.00;99.90;;;;;;5073181;28;20496;-83
2021/12/11 10:36:37;;;;;;;47.07;24.77;;;4.10;99.90;;;;;;5031013;28;20427;-83
2021/12/11 10:39:06;;;;;;;51.33;25.30;;;4.10;99.90;;;;;;5033783;28;20438;-83
2021/12/11 10:41:32;;;;;;;48.20;25.13;;;4.20;99.90;;;;;;5048099;28;20421;-83
2021/12/11 10:44:09;;;;;;;47.30;25.13;;;4.10;99.90;;;;;;5037557;28;20745;-81
2021/12/11 10:46:40;;;;;;;46.27;24.63;;;4.10;99.90;;;;;;5072298;28;20449;-81
2021/12/11 10:49:09;;;;;;;45.57;23.63;;;4.10;99.90;;;;;;5049910;28;20415;-80
2021/12/11 10:51:41;;;;;;;43.20;23.23;;;4.20;99.90;;;;;;5026407;28;20421;-80
2021/12/11 10:54:10;;;;;;;47.77;24.77;;;4.30;99.90;;;;;;5048411;28;20822;-82
2021/12/11 10:56:37;;;;;;;41.33;24.17;;;4.20;99.90;;;;;;5060128;28;20420;-83
2021/12/11 10:59:27;;;;;;;42.97;22.33;;;4.20;99.90;;;;;;5049452;28;20437;-82
2021/12/11 11:02:01;;;;;;;44.23;22.23;;;4.40;99.90;;;;;;5040698;28;20469;-83
2021/12/11 11:04:33;;;;;;;41.13;21.33;;;4.40;99.90;;;;;;5074863;28;20431;-82
2021/12/11 11:07:01;;;;;;;42.13;22.13;;;4.50;99.90;;;;;;5040335;28;20435;-82
2021/12/11 11:09:28;;;;;;;39.50;20.53;;;4.30;99.90;;;;;;5051878;28;20466;-83
2021/12/11 11:11:58;;;;;;;38.73;21.00;;;4.30;99.90;;;;;;5040667;28;20511;-80
2021/12/11 11:14:24;;;;;;;40.10;22.50;;;4.20;99.90;;;;;;5047960;28;20964;-81
2021/12/11 11:16:57;;;;;;;38.27;21.53;;;4.50;99.90;;;;;;5066063;28;20451;-81
2021/12/11 11:19:26;;;;;;;35.87;20.13;;;4.30;99.90;;;;;;5053571;28;20418;-83
2021/12/11 11:21:57;;;;;;;38.47;20.53;;;4.40;99.90;;;;;;5044755;28;20419;-83
2021/12/11 11:24:27;;;;;;;38.87;21.40;;;4.30;99.90;;;;;;5054265;28;20410;-83
2021/12/11 11:26:53;;;;;;;34.10;19.73;;;4.40;99.90;;;;;;5056039;28;20435;-83
2021/12/11 11:29:22;;;;;;;34.17;19.57;;;4.30;99.90;;;;;;5040158;28;20472;-81
2021/12/11 11:31:50;;;;;;;33.17;19.00;;;4.50;99.90;;;;;;5055293;28;20443;-83
2021/12/11 11:34:20;;;;;;;34.87;20.37;;;4.40;99.90;;;;;;5071707;28;20469;-82
2021/12/11 11:36:47;;;;;;;38.20;20.63;;;4.40;99.90;;;;;;5042438;28;20436;-83
2021/12/11 11:39:16;;;;;;;37.07;18.37;;;4.40;99.90;;;;;;5032573;28;20424;-81
2021/12/11 11:41:48;;;;;;;37.00;19.40;;;4.40;99.90;;;;;;5028971;28;20460;-83
2021/12/11 11:44:19;;;;;;;35.70;19.00;;;4.60;99.90;;;;;;5058301;28;20532;-81
2021/12/11 11:46:45;;;;;;;33.23;19.13;;;4.50;99.90;;;;;;5072386;28;20439;-81
2021/12/11 11:49:13;;;;;;;36.93;20.10;;;4.60;99.90;;;;;;5071310;28;20466;-82
2021/12/11 11:51:48;;;;;;;35.10;19.23;;;4.30;99.90;;;;;;5009164;28;20942;-82
2021/12/11 11:54:16;;;;;;;34.30;19.83;;;4.50;99.90;;;;;;5048603;28;20425;-81
2021/12/11 11:56:47;;;;;;;37.47;21.50;;;4.60;99.90;;;;;;5038273;28;20447;-83
2021/12/11 11:59:13;;;;;;;31.93;18.90;;;4.40;99.90;;;;;;5038550;28;20503;-83
2021/12/11 12:02:03;;;;;;;34.33;19.67;;;4.30;99.90;;;;;;5065478;28;20502;-82
2021/12/11 12:04:31;;;;;;;32.80;18.80;;;4.40;99.90;;;;;;5050330;28;20936;-83
2021/12/11 12:07:00;;;;;;;35.60;20.30;;;4.30;99.90;;;;;;5054799;28;20994;-84
2021/12/11 12:09:28;;;;;;;33.20;19.27;;;4.40;99.90;;;;;;5053740;28;20469;-83
2021/12/11 12:11:57;;;;;;;34.63;19.37;;;4.30;99.90;;;;;;5010175;28;20434;-81
2021/12/11 12:14:27;;;;;;;33.00;19.03;;;4.50;99.90;;;;;;5027894;28;20999;-82
2021/12/11 12:16:53;;;;;;;32.77;17.90;;;4.40;99.90;;;;;;5045760;28;20812;-80
2021/12/11 12:19:22;;;;;;;32.90;16.83;;;4.60;99.90;;;;;;5040958;28;20426;-82
2021/12/11 12:21:52;;;;;;;29.10;17.20;;;4.60;99.90;;;;;;5046546;28;20820;-80
2021/12/11 12:24:20;;;;;;;29.80;17.33;;;4.50;99.90;;;;;;5049962;28;20427;-80
2021/12/11 12:26:46;;;;;;;29.83;17.57;;;4.70;99.90;;;;;;5053197;28;20987;-81
2021/12/11 12:29:14;;;;;;;31.37;17.83;;;4.40;99.90;;;;;;5048354;28;20460;-81
2021/12/11 12:31:53;;;;;;;29.00;18.33;;;4.50;99.90;;;;;;5033773;28;20448;-83
2021/12/11 12:34:21;;;;;;;31.40;18.70;;;4.80;99.90;;;;;;5052319;28;20411;-82
2021/12/11 12:36:48;;;;;;;34.90;16.53;;;4.90;99.90;;;;;;5050672;28;20455;-81
2021/12/11 12:39:17;;;;;;;26.23;16.40;;;4.80;99.90;;;;;;5064403;28;20411;-81
2021/12/11 12:42:15;;;;;;;30.80;16.97;;;4.80;99.90;;;;;;5087306;28;20803;-82
2021/12/11 12:44:41;;;;;;;30.23;17.10;;;4.70;99.90;;;;;;5062993;28;20451;-82
2021/12/11 12:47:12;;;;;;;27.90;16.30;;;4.70;99.90;;;;;;5037075;28;20471;-82
2021/12/11 12:49:45;;;;;;;32.93;17.13;;;4.90;99.90;;;;;;5053812;28;20490;-80
2021/12/11 12:52:16;;;;;;;27.37;16.73;;;4.70;99.90;;;;;;5052711;28;20408;-81
2021/12/11 12:54:43;;;;;;;25.83;15.73;;;4.80;99.90;;;;;;5065956;28;20479;-80
2021/12/11 12:57:18;;;;;;;26.77;16.00;;;5.00;99.90;;;;;;5047223;28;20467;-81
2021/12/11 12:59:54;;;;;;;27.37;16.60;;;4.70;99.90;;;;;;5068821;28;20419;-81
2021/12/11 13:02:23;;;;;;;29.73;15.80;;;4.70;99.90;;;;;;5070806;28;20497;-83
2021/12/11 13:04:57;;;;;;;26.23;15.37;;;4.70;99.90;;;;;;5060214;28;20426;-81
2021/12/11 13:07:23;;;;;;;24.53;16.20;;;4.90;99.90;;;;;;5068643;28;20438;-82